Impacts METAR Board
IDs:

KPIT - Pittsburgh Intl, PA, US

Updated at: 0800 UTC 24 Sep 2018
Potential Impact None Slight Moderate High
Time 23/20Z 23/21Z 23/22Z 23/23Z 24/00Z 24/01Z 24/02Z 24/03Z 24/04Z 24/05Z 24/06Z 24/07Z 24/08Z
Temp67 66 66 66 65 62 59 58 58 57 56 57 56
Dewpt56 57 58 59 59 58 57 56 57 56 56 56 56
Altim30.15 30.15 30.16 30.16 30.17 30.18 30.19 30.20 30.21 30.21 30.20 30.20 30.20
VIS10 10 10 10 10 10 10 10 10 10 10 10 10
CIG200 200 200 24 22 -- -- 60 55 55 60 130 150
CoverBKNBKNBKNBKNOVCFEWSCTBKNBKNBKNBKNBKNBKN
FltCatVFRVFRVFRMVFRMVFRVFRVFRVFRVFRVFRVFRVFRVFR
WX--------------------------
WDir7060607060909080608010011090
WSpd5 6 6 6 5 10 6 5 6 6 6 6 6
WGst-- -- -- -- -- -- -- -- -- -- -- -- --
Raw hourly METARs
KPIT 231951Z 07005KT 10SM FEW130 BKN200 19/13 A3015 RMK AO2 SLP215 T01940133 $
KPIT 232051Z 06006KT 10SM FEW130 BKN200 19/14 A3015 RMK AO2 SLP216 T01890139 56006 $
KPIT 232151Z 06006KT 10SM FEW070 BKN200 19/14 A3016 RMK AO2 SLP218 T01890144 $
KPIT 232303Z 07006KT 10SM BKN024 BKN180 19/15 A3016 RMK AO2 T01890150 $
KPIT 232351Z 06005KT 10SM OVC022 18/15 A3017 RMK AO2 SLP221 BINOVC T01830150 10194 20183 53005 $
KPIT 240051Z 09010KT 10SM FEW022 17/14 A3018 RMK AO2 SLP227 T01670144 $
KPIT 240151Z 09006KT 10SM FEW022 SCT080 15/14 A3019 RMK AO2 SLP229 T01500139 $
KPIT 240251Z 08005KT 10SM SCT025 BKN060 14/13 A3020 RMK AO2 SLP232 T01440133 51010 $
KPIT 240351Z 06006KT 10SM SCT025 BKN055 14/14 A3021 RMK AO2 SLP235 T01440139 $
KPIT 240451Z 08006KT 10SM FEW025 BKN055 14/13 A3021 RMK AO2 SLP234 T01390133 401940111 $
KPIT 240551Z 10006KT 10SM BKN060 BKN150 13/13 A3020 RMK AO2 SLP231 T01330133 10183 20133 50000 $
KPIT 240651Z 11006KT 10SM SCT070 BKN130 14/13 A3020 RMK AO2 SLP231 T01390133 $
KPIT 240751Z 09006KT 10SM FEW070 BKN150 13/13 A3020 RMK AO2 SLP231 T01330133 $



Page loaded:  08:27 UTC  |   01:27 AM Pacific  |   02:27 AM Mountain  |   03:27 AM Central  |   04:27 AM Eastern

 

ADVISORIES

FORECASTS

FORECASTS

OBSERVATIONS

USER TOOLS

ABOUT US